Time;durP1;ratioP1;P1;durP2;ratioP2;P2;SDS_P1;SDS_P2;PMS_P1;PMS_P2;Temp;Humidity;BMP_temperature;BMP_pressure;BME280_temperature;BME280_humidity;BME280_pressure;Samples;Min_cycle;Max_cycle;Signal;HPM_P1;HPM_P2
2023/10/07 00:00:48;;;;;;;;;;;;;;;;;;5053061;28;19948;-70
2023/10/07 00:03:15;;;;;;;;;;;;;;;;;;5054498;28;19925;-70
2023/10/07 00:05:47;;;;;;;;;;;;;;;;;;5054383;28;20003;-69
2023/10/07 00:08:16;;;;;;;;;;;;;;;;;;5054350;28;19920;-70
2023/10/07 00:10:42;;;;;;;;;;;;;;;;;;5054175;28;20004;-70
2023/10/07 00:13:12;;;;;;;;;;;;;;;;;;5053964;28;19921;-71
2023/10/07 00:15:38;;;;;;;;;;;;;;;;;;5054035;28;20011;-70
2023/10/07 00:18:11;;;;;;;;;;;;;;;;;;5053766;28;19967;-70
2023/10/07 00:20:39;;;;;;;;;;;;;;;;;;5053945;28;20726;-70
2023/10/07 00:23:08;;;;;;;;;;;;;;;;;;5053994;28;19925;-70
2023/10/07 00:25:35;;;;;;;;;;;;;;;;;;5053897;28;19951;-70
2023/10/07 00:28:06;;;;;;;;;;;;;;;;;;5053793;28;19920;-70
2023/10/07 00:30:32;;;;;;;;;;;;;;;;;;5052450;28;19956;-70
2023/10/07 00:32:58;;;;;;;;;;;;;;;;;;5052690;28;19994;-70
2023/10/07 00:35:24;;;;;;;;;;;;;;;;;;5053723;28;19920;-70
2023/10/07 00:37:50;;;;;;;;;;;;;;;;;;5035826;28;19970;-71
2023/10/07 00:41:03;;;;;;;;;;;;;;;;;;5053240;28;20416;-70
2023/10/07 00:43:08;;;;;;;;;;;;;;;;;;5041305;28;19921;-71
2023/10/07 00:45:34;;;;;;;;;;;;;;;;;;5051995;28;19970;-70
2023/10/07 00:48:04;;;;;;;;;;;;;;;;;;5053546;28;19927;-70
2023/10/07 00:50:30;;;;;;;;;;;;;;;;;;5053401;28;19925;-70
2023/10/07 00:52:57;;;;;;;;;;;;;;;;;;5053466;28;19935;-71
2023/10/07 00:55:29;;;;;;;;;;;;;;;;;;5053271;28;19944;-70
2023/10/07 00:58:04;;;;;;;;;;;;;;;;;;5053463;28;20481;-71
2023/10/07 01:03:23;;;;;;;;;;;;;;;;;;5052750;28;20008;-70
2023/10/07 01:06:09;;;;;;;;;;;;;;;;;;5053197;28;19924;-71
2023/10/07 01:08:35;;;;;;;;;;;;;;;;;;5053210;28;19937;-70
2023/10/07 01:11:10;;;;;;;;;;;;;;;;;;5053037;28;19979;-70
2023/10/07 01:13:36;;;;;;;;;;;;;;;;;;5051915;28;19928;-70
2023/10/07 01:16:06;;;;;;;;;;;;;;;;;;5052755;28;19967;-70
2023/10/07 01:18:38;;;;;;;;;;;;;;;;;;5032842;28;19929;-70
2023/10/07 01:21:06;;;;;;;;;;;;;;;;;;5032825;28;20363;-70
2023/10/07 01:23:33;;;;;;;;;;;;;;;;;;5031438;28;20360;-70
2023/10/07 01:25:59;;;;;;;;;;;;;;;;;;5032562;28;19951;-70
2023/10/07 01:28:26;;;;;;;;;;;;;;;;;;5031315;28;19925;-71
2023/10/07 01:31:08;;;;;;;;;;;;;;;;;;5032453;28;19975;-70
2023/10/07 01:33:47;;;;;;;;;;;;;;;;;;5032562;28;19983;-70
2023/10/07 01:36:19;;;;;;;;;;;;;;;;;;5031156;28;20003;-70
2023/10/07 01:38:48;;;;;;;;;;;;;;;;;;5031156;28;19952;-71
2023/10/07 01:41:18;;;;;;;;;;;;;;;;;;5031378;28;19944;-71
2023/10/07 01:43:49;;;;;;;;;;;;;;;;;;5047738;28;19925;-70
2023/10/07 01:46:19;;;;;;;;;;;;;;;;;;5032336;28;20745;-70
2023/10/07 01:48:55;;;;;;;;;;;;;;;;;;5032495;28;19921;-70
2023/10/07 01:51:21;;;;;;;;;;;;;;;;;;5047640;28;20255;-70
2023/10/07 01:53:47;;;;;;;;;;;;;;;;;;5050586;28;20380;-71
2023/10/07 01:56:14;;;;;;;;;;;;;;;;;;5034110;28;20289;-71
2023/10/07 01:58:40;;;;;;;;;;;;;;;;;;5050867;28;19925;-70
2023/10/07 02:01:07;;;;;;;;;;;;;;;;;;5050639;28;19925;-70
2023/10/07 02:03:33;;;;;;;;;;;;;;;;;;5050831;28;19928;-70
2023/10/07 02:05:59;;;;;;;;;;;;;;;;;;5050634;28;19921;-71
2023/10/07 02:08:25;;;;;;;;;;;;;;;;;;5052223;28;20381;-70
2023/10/07 02:10:51;;;;;;;;;;;;;;;;;;5051847;28;20015;-71
2023/10/07 02:13:19;;;;;;;;;;;;;;;;;;5052045;28;19927;-71
2023/10/07 02:15:45;;;;;;;;;;;;;;;;;;5050140;28;20250;-70
2023/10/07 02:18:17;;;;;;;;;;;;;;;;;;5033966;28;19921;-70
2023/10/07 02:20:43;;;;;;;;;;;;;;;;;;5051843;28;20290;-70
2023/10/07 02:23:12;;;;;;;;;;;;;;;;;;5051742;28;19931;-71
2023/10/07 02:25:38;;;;;;;;;;;;;;;;;;5051670;28;19921;-71
2023/10/07 02:28:05;;;;;;;;;;;;;;;;;;5050370;28;20402;-71
2023/10/07 02:30:31;;;;;;;;;;;;;;;;;;5051700;28;19925;-70
2023/10/07 02:33:01;;;;;;;;;;;;;;;;;;5050529;28;19928;-70
2023/10/07 02:35:31;;;;;;;;;;;;;;;;;;5050581;28;20023;-71
2023/10/07 02:38:02;;;;;;;;;;;;;;;;;;5051159;28;20425;-71
2023/10/07 02:40:35;;;;;;;;;;;;;;;;;;5051190;28;19929;-70
2023/10/07 02:43:07;;;;;;;;;;;;;;;;;;5051140;28;20349;-70
2023/10/07 02:45:39;;;;;;;;;;;;;;;;;;5049679;28;19921;-71
2023/10/07 02:48:10;;;;;;;;;;;;;;;;;;5050878;28;20014;-71
2023/10/07 02:50:39;;;;;;;;;;;;;;;;;;5049188;28;20406;-70
2023/10/07 02:53:11;;;;;;;;;;;;;;;;;;5050573;28;19925;-71
2023/10/07 02:55:58;;;;;;;;;;;;;;;;;;5032714;28;19950;-70
2023/10/07 02:58:32;;;;;;;;;;;;;;;;;;5032568;28;19921;-70
2023/10/07 03:01:10;;;;;;;;;;;;;;;;;;5051276;28;19927;-71
2023/10/07 03:03:38;;;;;;;;;;;;;;;;;;5050680;28;19924;-71
2023/10/07 03:06:06;;;;;;;;;;;;;;;;;;5049305;28;19920;-72
2023/10/07 03:11:24;;;;;;;;;;;;;;;;;;5049383;28;20275;-71
2023/10/07 03:13:49;;;;;;;;;;;;;;;;;;5050658;28;19956;-71
2023/10/07 03:19:19;;;;;;;;;;;;;;;;;;5051188;28;19971;-70
2023/10/07 03:24:10;;;;;;;;;;;;;;;;;;5051203;28;19932;-71
2023/10/07 03:26:37;;;;;;;;;;;;;;;;;;5050803;28;19928;-70
2023/10/07 03:29:04;;;;;;;;;;;;;;;;;;5055142;28;19966;-71
2023/10/07 03:31:35;;;;;;;;;;;;;;;;;;5055023;28;20290;-70
2023/10/07 03:34:01;;;;;;;;;;;;;;;;;;5054775;28;19951;-71
2023/10/07 03:36:31;;;;;;;;;;;;;;;;;;5054881;28;19921;-71
2023/10/07 03:42:02;;;;;;;;;;;;;;;;;;5053303;28;19950;-70
2023/10/07 03:44:28;;;;;;;;;;;;;;;;;;5053990;28;19924;-70
2023/10/07 03:46:57;;;;;;;;;;;;;;;;;;5053270;28;19921;-70
2023/10/07 03:49:23;;;;;;;;;;;;;;;;;;5036432;28;20392;-71
2023/10/07 03:51:58;;;;;;;;;;;;;;;;;;5054440;28;19920;-71
2023/10/07 03:54:29;;;;;;;;;;;;;;;;;;5036557;28;19925;-71
2023/10/07 03:56:55;;;;;;;;;;;;;;;;;;5054378;28;19925;-71
2023/10/07 03:59:21;;;;;;;;;;;;;;;;;;5051932;28;19925;-71
2023/10/07 04:01:53;;;;;;;;;;;;;;;;;;5052026;28;19921;-71
2023/10/07 04:04:22;;;;;;;;;;;;;;;;;;5051903;28;19921;-70
2023/10/07 04:06:48;;;;;;;;;;;;;;;;;;5051980;28;19971;-71
2023/10/07 04:09:14;;;;;;;;;;;;;;;;;;5053391;28;20532;-70
2023/10/07 04:11:48;;;;;;;;;;;;;;;;;;5053074;28;20390;-71
2023/10/07 04:14:27;;;;;;;;;;;;;;;;;;5051845;28;19924;-70
2023/10/07 04:16:54;;;;;;;;;;;;;;;;;;5053882;28;19963;-71
2023/10/07 04:21:51;;;;;;;;;;;;;;;;;;5053338;28;19925;-71
2023/10/07 04:24:18;;;;;;;;;;;;;;;;;;5053130;28;19976;-71
2023/10/07 04:26:54;;;;;;;;;;;;;;;;;;5052983;28;20058;-71
2023/10/07 04:29:21;;;;;;;;;;;;;;;;;;5053121;28;19920;-71
2023/10/07 04:31:47;;;;;;;;;;;;;;;;;;5051539;28;19947;-71
2023/10/07 04:34:17;;;;;;;;;;;;;;;;;;5053161;28;19920;-71
2023/10/07 04:39:28;;;;;;;;;;;;;;;;;;5051795;28;19966;-70
2023/10/07 04:42:00;;;;;;;;;;;;;;;;;;5053370;28;19924;-70
2023/10/07 04:52:30;;;;;;;;;;;;;;;;;;5039745;28;19927;-71
2023/10/07 04:54:58;;;;;;;;;;;;;;;;;;5035396;28;20020;-70
2023/10/07 05:00:09;;;;;;;;;;;;;;;;;;5053296;28;19929;-70
2023/10/07 05:02:35;;;;;;;;;;;;;;;;;;5053408;28;19979;-70
2023/10/07 05:05:10;;;;;;;;;;;;;;;;;;5051707;28;20390;-70
2023/10/07 05:07:38;;;;;;;;;;;;;;;;;;5051866;28;19935;-70
2023/10/07 05:10:07;;;;;;;;;;;;;;;;;;5052974;28;19924;-71
2023/10/07 05:12:33;;;;;;;;;;;;;;;;;;5053174;28;19975;-71
2023/10/07 05:15:00;;;;;;;;;;;;;;;;;;5051583;28;19921;-70
2023/10/07 05:17:28;;;;;;;;;;;;;;;;;;5052957;28;19928;-70
2023/10/07 05:19:58;;;;;;;;;;;;;;;;;;5052742;28;19972;-71
2023/10/07 05:22:24;;;;;;;;;;;;;;;;;;5053089;28;19921;-71
2023/10/07 05:24:55;;;;;;;;;;;;;;;;;;5052867;28;19920;-71
2023/10/07 05:27:21;;;;;;;;;;;;;;;;;;5052928;28;19931;-71
2023/10/07 05:29:47;;;;;;;;;;;;;;;;;;5051344;28;19925;-70
2023/10/07 05:32:13;;;;;;;;;;;;;;;;;;5051282;28;19921;-71
2023/10/07 05:34:39;;;;;;;;;;;;;;;;;;5052783;28;20289;-69
2023/10/07 05:37:11;;;;;;;;;;;;;;;;;;5052737;28;19925;-70
2023/10/07 05:39:36;;;;;;;;;;;;;;;;;;5050895;28;19972;-70
2023/10/07 05:42:03;;;;;;;;;;;;;;;;;;5051145;28;19975;-70
2023/10/07 05:44:30;;;;;;;;;;;;;;;;;;5052605;28;19928;-71
2023/10/07 05:46:55;;;;;;;;;;;;;;;;;;5052398;28;19973;-71
2023/10/07 05:49:22;;;;;;;;;;;;;;;;;;5052272;28;20011;-70
2023/10/07 05:51:48;;;;;;;;;;;;;;;;;;5052035;28;19925;-70
2023/10/07 05:54:18;;;;;;;;;;;;;;;;;;5050899;28;19927;-70
2023/10/07 05:56:47;;;;;;;;;;;;;;;;;;5052164;28;20515;-71
2023/10/07 05:59:13;;;;;;;;;;;;;;;;;;5050721;28;19932;-71
2023/10/07 06:01:39;;;;;;;;;;;;;;;;;;5052127;28;19927;-71
2023/10/07 06:04:04;;;;;;;;;;;;;;;;;;5050498;28;19920;-70
2023/10/07 06:06:31;;;;;;;;;;;;;;;;;;5050477;28;19928;-71
2023/10/07 06:09:00;;;;;;;;;;;;;;;;;;5051920;28;19932;-71
2023/10/07 06:11:27;;;;;;;;;;;;;;;;;;5052103;28;19943;-70
2023/10/07 06:13:53;;;;;;;;;;;;;;;;;;5051911;28;19932;-71
2023/10/07 06:16:19;;;;;;;;;;;;;;;;;;5051815;28;19920;-71
2023/10/07 06:18:45;;;;;;;;;;;;;;;;;;5051897;28;19952;-71
2023/10/07 06:21:27;;;;;;;;;;;;;;;;;;5050582;28;19931;-71
2023/10/07 06:23:53;;;;;;;;;;;;;;;;;;5052032;28;19921;-72
2023/10/07 06:26:19;;;;;;;;;;;;;;;;;;5050206;28;19925;-70
2023/10/07 06:28:48;;;;;;;;;;;;;;;;;;5051613;28;19931;-71
2023/10/07 06:31:14;;;;;;;;;;;;;;;;;;5051824;28;20274;-72
2023/10/07 06:33:41;;;;;;;;;;;;;;;;;;5051556;28;19928;-71
2023/10/07 06:36:10;;;;;;;;;;;;;;;;;;5051596;28;19994;-71
2023/10/07 06:38:36;;;;;;;;;;;;;;;;;;5050369;28;20290;-70
2023/10/07 06:41:05;;;;;;;;;;;;;;;;;;5051450;28;19925;-71
2023/10/07 06:43:31;;;;;;;;;;;;;;;;;;5050206;28;19947;-72
2023/10/07 06:46:00;;;;;;;;;;;;;;;;;;5050855;28;19983;-71
2023/10/07 06:48:30;;;;;;;;;;;;;;;;;;5049609;28;19925;-71
2023/10/07 06:50:56;;;;;;;;;;;;;;;;;;5051333;28;19940;-70
2023/10/07 06:53:22;;;;;;;;;;;;;;;;;;5049725;28;20019;-71
2023/10/07 06:55:48;;;;;;;;;;;;;;;;;;5051013;28;19928;-70
2023/10/07 06:58:14;;;;;;;;;;;;;;;;;;5051157;28;19931;-71
2023/10/07 07:00:49;;;;;;;;;;;;;;;;;;5051236;28;19929;-71
2023/10/07 07:03:18;;;;;;;;;;;;;;;;;;5054803;28;19928;-72
2023/10/07 07:05:45;;;;;;;;;;;;;;;;;;5055220;28;19924;-70
2023/10/07 07:08:11;;;;;;;;;;;;;;;;;;5055159;28;20002;-70
2023/10/07 07:10:37;;;;;;;;;;;;;;;;;;5037205;28;19920;-70
2023/10/07 07:13:05;;;;;;;;;;;;;;;;;;5055185;28;20267;-71
2023/10/07 07:15:36;;;;;;;;;;;;;;;;;;5053951;28;19921;-70
2023/10/07 07:18:14;;;;;;;;;;;;;;;;;;5055192;28;19975;-70
2023/10/07 07:20:48;;;;;;;;;;;;;;;;;;5054611;28;20279;-70
2023/10/07 07:23:16;;;;;;;;;;;;;;;;;;5054193;28;19928;-71
2023/10/07 07:25:42;;;;;;;;;;;;;;;;;;5053380;28;19925;-70
2023/10/07 07:28:09;;;;;;;;;;;;;;;;;;5052969;28;19947;-70
2023/10/07 07:30:35;;;;;;;;;;;;;;;;;;5054655;28;19986;-70
2023/10/07 07:33:06;;;;;;;;;;;;;;;;;;5054953;28;20356;-70
2023/10/07 07:35:44;;;;;;;;;;;;;;;;;;5054888;28;20374;-70
2023/10/07 07:38:22;;;;;;;;;;;;;;;;;;5054864;28;19925;-69
2023/10/07 07:40:49;;;;;;;;;;;;;;;;;;5054886;28;19971;-70
2023/10/07 07:43:19;;;;;;;;;;;;;;;;;;5054828;28;19920;-71
2023/10/07 07:45:46;;;;;;;;;;;;;;;;;;5053856;28;19920;-71
2023/10/07 07:48:12;;;;;;;;;;;;;;;;;;5053643;28;19967;-70
2023/10/07 07:50:40;;;;;;;;;;;;;;;;;;5053745;28;19925;-71
2023/10/07 07:55:43;;;;;;;;;;;;;;;;;;5014337;28;19929;-68
2023/10/07 07:58:09;;;;;;;;;;;;;;;;;;5013965;28;19938;-68
2023/10/07 08:00:40;;;;;;;;;;;;;;;;;;5015048;28;19926;-68
2023/10/07 08:03:07;;;;;;;;;;;;;;;;;;5014241;28;20019;-67
2023/10/07 08:05:34;;;;;;;;;;;;;;;;;;5015196;28;19966;-68
2023/10/07 08:08:09;;;;;;;;;;;;;;;;;;5014874;28;20279;-68
2023/10/07 08:10:35;;;;;;;;;;;;;;;;;;5014914;28;20008;-68
2023/10/07 08:13:01;;;;;;;;;;;;;;;;;;5013719;28;19922;-67
2023/10/07 08:15:38;;;;;;;;;;;;;;;;;;5014872;28;19932;-67
2023/10/07 08:18:06;;;;;;;;;;;;;;;;;;5013349;28;19972;-68
2023/10/07 08:20:44;;;;;;;;;;;;;;;;;;5014531;28;20024;-68
2023/10/07 08:23:15;;;;;;;;;;;;;;;;;;5014639;28;19926;-67
2023/10/07 08:25:47;;;;;;;;;;;;;;;;;;5030056;28;19929;-67
2023/10/07 08:28:19;;;;;;;;;;;;;;;;;;5014779;28;19922;-67
2023/10/07 08:30:46;;;;;;;;;;;;;;;;;;5014419;28;20442;-67
2023/10/07 08:33:12;;;;;;;;;;;;;;;;;;5014648;28;20098;-68
2023/10/07 08:35:43;;;;;;;;;;;;;;;;;;5014714;28;20505;-67
2023/10/07 08:38:20;;;;;;;;;;;;;;;;;;4996746;28;19921;-68
2023/10/07 08:40:50;;;;;;;;;;;;;;;;;;5014276;28;19932;-67
2023/10/07 08:43:19;;;;;;;;;;;;;;;;;;5012931;28;20032;-68
2023/10/07 08:45:45;;;;;;;;;;;;;;;;;;5012935;28;20415;-68
2023/10/07 08:48:15;;;;;;;;;;;;;;;;;;5013920;28;19932;-69
2023/10/07 08:50:55;;;;;;;;;;;;;;;;;;5014042;28;20013;-70
2023/10/07 08:53:23;;;;;;;;;;;;;;;;;;5012110;28;20013;-64
2023/10/07 08:55:51;;;;;;;;;;;;;;;;;;5011454;28;20457;-64
2023/10/07 08:58:17;;;;;;;;;;;;;;;;;;5012779;28;20005;-65
2023/10/07 09:00:45;;;;;;;;;;;;;;;;;;5012658;28;19981;-64
2023/10/07 09:03:14;;;;;;;;;;;;;;;;;;5012704;28;20383;-65
2023/10/07 09:05:40;;;;;;;;;;;;;;;;;;5012651;28;20016;-65
2023/10/07 09:08:11;;;;;;;;;;;;;;;;;;5012666;28;20022;-64
2023/10/07 09:10:37;;;;;;;;;;;;;;;;;;5012767;28;19923;-64
2023/10/07 09:13:05;;;;;;;;;;;;;;;;;;5012716;28;19936;-64
2023/10/07 09:15:35;;;;;;;;;;;;;;;;;;5012572;28;19925;-64
2023/10/07 09:18:04;;;;;;;;;;;;;;;;;;5012336;28;20225;-63
2023/10/07 09:20:31;;;;;;;;;;;;;;;;;;5012519;28;19921;-64
2023/10/07 09:22:57;;;;;;;;;;;;;;;;;;5012299;28;19926;-63
2023/10/07 09:25:29;;;;;;;;;;;;;;;;;;5011874;28;19929;-63
2023/10/07 09:27:55;;;;;;;;;;;;;;;;;;5011214;28;19951;-65
2023/10/07 09:30:45;;;;;;;;;;;;;;;;;;5012280;28;20347;-64
2023/10/07 09:33:14;;;;;;;;;;;;;;;;;;5010959;28;20007;-64
2023/10/07 09:35:43;;;;;;;;;;;;;;;;;;5010750;28;20395;-64
2023/10/07 09:38:12;;;;;;;;;;;;;;;;;;5012204;28;19925;-64
2023/10/07 09:43:19;;;;;;;;;;;;;;;;;;5010568;28;19925;-64
2023/10/07 09:45:52;;;;;;;;;;;;;;;;;;5012046;28;19925;-64
2023/10/07 09:48:18;;;;;;;;;;;;;;;;;;5027146;28;20032;-64
2023/10/07 09:50:44;;;;;;;;;;;;;;;;;;5011770;28;20012;-64
2023/10/07 09:53:14;;;;;;;;;;;;;;;;;;5010569;28;20620;-64
2023/10/07 09:55:57;;;;;;;;;;;;;;;;;;5109495;27;20349;-64
2023/10/07 09:58:26;;;;;;;;;;;;;;;;;;5109811;28;19927;-63
2023/10/07 10:01:04;;;;;;;;;;;;;;;;;;5109509;28;19935;-62
2023/10/07 10:03:30;;;;;;;;;;;;;;;;;;5108310;28;19924;-63
2023/10/07 10:05:56;;;;;;;;;;;;;;;;;;5091542;28;19942;-64
2023/10/07 10:08:27;;;;;;;;;;;;;;;;;;5108394;28;19926;-64
2023/10/07 10:10:57;;;;;;;;;;;;;;;;;;5108004;28;19967;-64
2023/10/07 10:16:12;;;;;;;;;;;;;;;;;;5109553;28;19931;-63
2023/10/07 10:18:40;;;;;;;;;;;;;;;;;;5087706;28;20015;-62
2023/10/07 10:21:09;;;;;;;;;;;;;;;;;;5088893;28;19977;-62
2023/10/07 10:23:35;;;;;;;;;;;;;;;;;;5088910;28;19935;-63
2023/10/07 10:26:03;;;;;;;;;;;;;;;;;;5087371;28;19925;-63
2023/10/07 10:28:31;;;;;;;;;;;;;;;;;;5070577;28;19943;-64
2023/10/07 10:30:57;;;;;;;;;;;;;;;;;;5087486;28;20011;-63
2023/10/07 10:33:23;;;;;;;;;;;;;;;;;;5088402;28;20465;-63
2023/10/07 10:35:51;;;;;;;;;;;;;;;;;;5088473;28;20377;-63
2023/10/07 10:38:19;;;;;;;;;;;;;;;;;;5088769;28;19977;-63
2023/10/07 10:40:45;;;;;;;;;;;;;;;;;;5088135;28;20027;-64
2023/10/07 10:43:11;;;;;;;;;;;;;;;;;;5086380;28;20015;-65
2023/10/07 10:45:41;;;;;;;;;;;;;;;;;;5086024;28;20034;-64
2023/10/07 10:48:08;;;;;;;;;;;;;;;;;;5087804;28;19967;-63
2023/10/07 10:50:34;;;;;;;;;;;;;;;;;;5085986;28;19932;-64
2023/10/07 10:53:00;;;;;;;;;;;;;;;;;;5099346;28;19992;-64
2023/10/07 10:55:26;;;;;;;;;;;;;;;;;;5106094;28;19928;-63
2023/10/07 10:57:52;;;;;;;;;;;;;;;;;;5106517;28;19927;-63
2023/10/07 11:00:24;;;;;;;;;;;;;;;;;;5107031;28;20016;-63
2023/10/07 11:02:50;;;;;;;;;;;;;;;;;;5108265;28;20437;-64
2023/10/07 11:05:16;;;;;;;;;;;;;;;;;;5105156;28;19942;-64
2023/10/07 11:07:42;;;;;;;;;;;;;;;;;;5092630;28;20402;-64
2023/10/07 11:10:08;;;;;;;;;;;;;;;;;;5092664;28;19931;-64
2023/10/07 11:12:36;;;;;;;;;;;;;;;;;;5092504;28;19928;-63
2023/10/07 11:15:06;;;;;;;;;;;;;;;;;;5093735;28;20389;-63
2023/10/07 11:17:32;;;;;;;;;;;;;;;;;;5092208;28;19920;-63
2023/10/07 11:19:58;;;;;;;;;;;;;;;;;;5092561;28;19924;-64
2023/10/07 11:22:24;;;;;;;;;;;;;;;;;;5093479;28;19927;-64
2023/10/07 11:24:50;;;;;;;;;;;;;;;;;;5092176;28;19920;-63
2023/10/07 11:27:16;;;;;;;;;;;;;;;;;;5092031;28;19924;-63
2023/10/07 11:29:42;;;;;;;;;;;;;;;;;;5094167;28;19947;-64
2023/10/07 11:32:08;;;;;;;;;;;;;;;;;;5093694;28;19920;-64
2023/10/07 11:34:36;;;;;;;;;;;;;;;;;;5093498;28;20484;-64
2023/10/07 11:37:02;;;;;;;;;;;;;;;;;;5093505;28;19920;-64
2023/10/07 11:39:28;;;;;;;;;;;;;;;;;;5092457;28;19931;-64
2023/10/07 11:41:55;;;;;;;;;;;;;;;;;;5094144;28;19931;-64
2023/10/07 11:44:20;;;;;;;;;;;;;;;;;;5094084;28;20006;-64
2023/10/07 11:46:46;;;;;;;;;;;;;;;;;;5093984;28;20499;-62
2023/10/07 11:49:15;;;;;;;;;;;;;;;;;;5094049;28;19920;-64
2023/10/07 11:51:41;;;;;;;;;;;;;;;;;;5093735;28;19924;-63
2023/10/07 11:54:07;;;;;;;;;;;;;;;;;;5099446;28;19931;-64
2023/10/07 11:56:33;;;;;;;;;;;;;;;;;;5095721;28;19924;-64
2023/10/07 11:58:58;;;;;;;;;;;;;;;;;;5095781;28;19969;-63
2023/10/07 12:01:24;;;;;;;;;;;;;;;;;;5114154;28;20282;-63
2023/10/07 12:03:50;;;;;;;;;;;;;;;;;;5114259;28;19935;-64
2023/10/07 12:06:17;;;;;;;;;;;;;;;;;;5114026;28;19972;-64
2023/10/07 12:08:43;;;;;;;;;;;;;;;;;;5113959;28;19920;-64
2023/10/07 12:11:09;;;;;;;;;;;;;;;;;;5095652;28;19940;-63
2023/10/07 12:13:35;;;;;;;;;;;;;;;;;;5095438;28;20360;-64
2023/10/07 12:16:01;;;;;;;;;;;;;;;;;;5114017;28;19924;-64
2023/10/07 12:18:27;;;;;;;;;;;;;;;;;;5094033;28;19927;-64
2023/10/07 12:20:55;;;;;;;;;;;;;;;;;;5094699;28;19919;-63
2023/10/07 12:23:21;;;;;;;;;;;;;;;;;;5112926;28;19941;-63
2023/10/07 12:25:47;;;;;;;;;;;;;;;;;;5113174;28;20383;-64
2023/10/07 12:28:13;;;;;;;;;;;;;;;;;;5112643;28;19923;-63
2023/10/07 12:30:39;;;;;;;;;;;;;;;;;;5113121;28;19954;-64
2023/10/07 12:33:05;;;;;;;;;;;;;;;;;;5095133;28;19924;-63
2023/10/07 12:35:31;;;;;;;;;;;;;;;;;;5112864;28;20435;-64
2023/10/07 12:37:59;;;;;;;;;;;;;;;;;;5112775;28;19926;-63
2023/10/07 12:40:28;;;;;;;;;;;;;;;;;;5128402;27;19926;-64
2023/10/07 12:42:54;;;;;;;;;;;;;;;;;;5128314;27;19930;-63
2023/10/07 12:45:20;;;;;;;;;;;;;;;;;;5094160;28;19924;-64
2023/10/07 12:47:51;;;;;;;;;;;;;;;;;;5112511;28;19963;-64
2023/10/07 12:50:20;;;;;;;;;;;;;;;;;;5111816;28;20368;-63
2023/10/07 12:52:46;;;;;;;;;;;;;;;;;;5113121;28;19920;-64
2023/10/07 12:55:12;;;;;;;;;;;;;;;;;;5094638;28;19969;-64
2023/10/07 12:57:41;;;;;;;;;;;;;;;;;;5113163;28;19971;-64
2023/10/07 13:00:18;;;;;;;;;;;;;;;;;;5128841;27;19923;-63
2023/10/07 13:02:44;;;;;;;;;;;;;;;;;;5112994;28;19930;-64
2023/10/07 13:05:17;;;;;;;;;;;;;;;;;;5112810;28;19940;-63
2023/10/07 13:07:44;;;;;;;;;;;;;;;;;;5128683;27;19962;-64
2023/10/07 13:10:11;;;;;;;;;;;;;;;;;;5077647;28;19919;-63
2023/10/07 13:12:37;;;;;;;;;;;;;;;;;;5113009;28;20261;-63
2023/10/07 13:15:10;;;;;;;;;;;;;;;;;;5112684;28;20027;-63
2023/10/07 13:17:36;;;;;;;;;;;;;;;;;;5112736;28;19992;-64
2023/10/07 13:20:07;;;;;;;;;;;;;;;;;;5094490;28;20384;-64
2023/10/07 13:22:33;;;;;;;;;;;;;;;;;;5094213;28;19949;-64
2023/10/07 13:24:59;;;;;;;;;;;;;;;;;;5112503;28;20376;-64
2023/10/07 13:27:26;;;;;;;;;;;;;;;;;;5112628;28;19924;-64
2023/10/07 13:29:52;;;;;;;;;;;;;;;;;;5112301;28;19920;-64
2023/10/07 13:32:18;;;;;;;;;;;;;;;;;;5112640;28;20269;-64
2023/10/07 13:34:44;;;;;;;;;;;;;;;;;;5112406;28;19928;-62
2023/10/07 13:37:11;;;;;;;;;;;;;;;;;;5112619;28;19920;-63
2023/10/07 13:39:38;;;;;;;;;;;;;;;;;;5094069;28;20022;-64
2023/10/07 13:42:09;;;;;;;;;;;;;;;;;;5112429;28;20020;-63
2023/10/07 13:44:35;;;;;;;;;;;;;;;;;;5093883;28;20403;-63
2023/10/07 13:47:01;;;;;;;;;;;;;;;;;;5112422;28;19920;-63
2023/10/07 13:49:27;;;;;;;;;;;;;;;;;;5112282;28;19932;-64
2023/10/07 13:51:56;;;;;;;;;;;;;;;;;;5093612;28;19919;-64
2023/10/07 13:54:23;;;;;;;;;;;;;;;;;;5127616;28;19930;-63
2023/10/07 13:56:53;;;;;;;;;;;;;;;;;;5112380;28;20276;-64
2023/10/07 13:59:19;;;;;;;;;;;;;;;;;;5112245;28;19919;-64
2023/10/07 14:01:51;;;;;;;;;;;;;;;;;;5094023;28;19928;-63
2023/10/07 14:04:18;;;;;;;;;;;;;;;;;;5076857;28;19924;-64
2023/10/07 14:06:44;;;;;;;;;;;;;;;;;;5127890;28;20424;-63
2023/10/07 14:09:16;;;;;;;;;;;;;;;;;;5112168;28;19969;-64
2023/10/07 14:11:45;;;;;;;;;;;;;;;;;;5112001;28;19919;-63
2023/10/07 14:14:11;;;;;;;;;;;;;;;;;;5111710;28;19924;-64
2023/10/07 14:16:37;;;;;;;;;;;;;;;;;;5093359;28;19931;-64
2023/10/07 14:19:05;;;;;;;;;;;;;;;;;;5111643;28;19920;-63
2023/10/07 14:21:31;;;;;;;;;;;;;;;;;;5093403;28;19920;-63
2023/10/07 14:24:03;;;;;;;;;;;;;;;;;;5093000;28;19973;-64
2023/10/07 14:26:32;;;;;;;;;;;;;;;;;;5112008;28;19927;-64
2023/10/07 14:29:01;;;;;;;;;;;;;;;;;;5111714;28;20411;-63
2023/10/07 14:31:27;;;;;;;;;;;;;;;;;;5112052;28;20329;-63
2023/10/07 14:33:54;;;;;;;;;;;;;;;;;;5093201;28;19932;-64
2023/10/07 14:36:21;;;;;;;;;;;;;;;;;;5093474;28;19919;-63
2023/10/07 14:38:48;;;;;;;;;;;;;;;;;;5093455;28;19923;-63
2023/10/07 14:41:14;;;;;;;;;;;;;;;;;;5113217;28;20007;-63
2023/10/07 14:43:40;;;;;;;;;;;;;;;;;;5115713;28;20351;-63
2023/10/07 14:46:10;;;;;;;;;;;;;;;;;;5097097;28;19919;-64
2023/10/07 14:48:37;;;;;;;;;;;;;;;;;;5115251;28;19959;-63
2023/10/07 14:51:04;;;;;;;;;;;;;;;;;;5114975;28;19971;-64
2023/10/07 14:53:33;;;;;;;;;;;;;;;;;;5096203;28;19930;-63
2023/10/07 14:55:59;;;;;;;;;;;;;;;;;;5130701;27;19923;-63
2023/10/07 14:58:29;;;;;;;;;;;;;;;;;;5096353;28;20287;-64
2023/10/07 15:00:55;;;;;;;;;;;;;;;;;;5114572;28;20376;-64
2023/10/07 15:03:22;;;;;;;;;;;;;;;;;;5079321;28;19920;-63
2023/10/07 15:05:48;;;;;;;;;;;;;;;;;;5114842;28;19926;-66
2023/10/07 15:08:16;;;;;;;;;;;;;;;;;;5115021;28;19931;-64
2023/10/07 15:10:42;;;;;;;;;;;;;;;;;;5130364;27;19935;-64
2023/10/07 15:13:09;;;;;;;;;;;;;;;;;;5096512;28;19920;-63
2023/10/07 15:15:35;;;;;;;;;;;;;;;;;;5130441;27;19928;-64
2023/10/07 15:18:00;;;;;;;;;;;;;;;;;;5114636;28;19923;-64
2023/10/07 15:20:27;;;;;;;;;;;;;;;;;;5114551;28;19920;-63
2023/10/07 15:22:53;;;;;;;;;;;;;;;;;;5096294;28;19923;-63
2023/10/07 15:25:19;;;;;;;;;;;;;;;;;;5096247;28;19964;-63
2023/10/07 15:27:45;;;;;;;;;;;;;;;;;;5114612;28;19920;-63
2023/10/07 15:30:11;;;;;;;;;;;;;;;;;;5096074;28;19959;-65
2023/10/07 15:32:37;;;;;;;;;;;;;;;;;;5114850;28;19931;-64
2023/10/07 15:35:03;;;;;;;;;;;;;;;;;;5096090;28;19920;-64
2023/10/07 15:37:32;;;;;;;;;;;;;;;;;;5114732;28;20010;-63
2023/10/07 15:39:58;;;;;;;;;;;;;;;;;;5114243;28;20472;-63
2023/10/07 15:42:26;;;;;;;;;;;;;;;;;;5114520;28;20019;-63
2023/10/07 15:44:52;;;;;;;;;;;;;;;;;;5095903;28;19989;-64
2023/10/07 15:47:18;;;;;;;;;;;;;;;;;;5113623;28;20386;-63
2023/10/07 15:49:45;;;;;;;;;;;;;;;;;;5113717;28;20349;-63
2023/10/07 15:52:11;;;;;;;;;;;;;;;;;;5113793;28;20292;-63
2023/10/07 15:54:37;;;;;;;;;;;;;;;;;;5113379;28;19923;-63
2023/10/07 15:57:03;;;;;;;;;;;;;;;;;;5113883;28;20010;-63
2023/10/07 15:59:31;;;;;;;;;;;;;;;;;;5078829;28;19924;-63
2023/10/07 16:01:57;;;;;;;;;;;;;;;;;;5129828;27;20018;-63
2023/10/07 16:04:25;;;;;;;;;;;;;;;;;;5113794;28;20583;-63
2023/10/07 16:06:51;;;;;;;;;;;;;;;;;;5129758;27;19974;-63
2023/10/07 16:09:17;;;;;;;;;;;;;;;;;;5113759;28;19967;-64
2023/10/07 16:11:43;;;;;;;;;;;;;;;;;;5129536;27;19919;-63
2023/10/07 16:14:10;;;;;;;;;;;;;;;;;;5113790;28;19928;-64
2023/10/07 16:16:36;;;;;;;;;;;;;;;;;;5113595;28;20015;-63
2023/10/07 16:19:02;;;;;;;;;;;;;;;;;;5113681;28;20046;-63
2023/10/07 16:21:28;;;;;;;;;;;;;;;;;;5078557;28;19923;-64
2023/10/07 16:23:53;;;;;;;;;;;;;;;;;;5095487;28;20403;-63
2023/10/07 16:26:19;;;;;;;;;;;;;;;;;;5095026;28;19966;-64
2023/10/07 16:28:46;;;;;;;;;;;;;;;;;;5095410;28;19965;-63
2023/10/07 16:31:12;;;;;;;;;;;;;;;;;;5113691;28;19919;-63
2023/10/07 16:33:38;;;;;;;;;;;;;;;;;;5113527;28;20377;-62
2023/10/07 16:36:04;;;;;;;;;;;;;;;;;;5095397;28;19931;-63
2023/10/07 16:38:31;;;;;;;;;;;;;;;;;;5078075;28;19924;-64
2023/10/07 16:41:01;;;;;;;;;;;;;;;;;;5094901;28;19951;-63
2023/10/07 16:43:27;;;;;;;;;;;;;;;;;;5113274;28;19920;-63
2023/10/07 16:45:53;;;;;;;;;;;;;;;;;;5094732;28;19927;-63
2023/10/07 16:48:19;;;;;;;;;;;;;;;;;;5094774;28;19928;-64
2023/10/07 16:50:45;;;;;;;;;;;;;;;;;;5113292;28;19934;-64
2023/10/07 16:53:11;;;;;;;;;;;;;;;;;;5113040;28;19919;-64
2023/10/07 16:55:36;;;;;;;;;;;;;;;;;;5112807;28;19923;-63
2023/10/07 16:58:03;;;;;;;;;;;;;;;;;;5094534;28;20002;-64
2023/10/07 17:00:29;;;;;;;;;;;;;;;;;;5105055;28;19920;-64
2023/10/07 17:02:55;;;;;;;;;;;;;;;;;;5073896;28;19931;-63
2023/10/07 17:05:20;;;;;;;;;;;;;;;;;;5073698;28;20025;-64
2023/10/07 17:07:46;;;;;;;;;;;;;;;;;;5092428;28;20020;-63
2023/10/07 17:10:13;;;;;;;;;;;;;;;;;;5074142;28;20294;-63
2023/10/07 17:12:39;;;;;;;;;;;;;;;;;;5092278;28;19920;-63
2023/10/07 17:15:06;;;;;;;;;;;;;;;;;;5074016;28;19942;-63
2023/10/07 17:17:32;;;;;;;;;;;;;;;;;;5103513;28;19955;-64
2023/10/07 17:19:58;;;;;;;;;;;;;;;;;;5093489;28;20348;-64
2023/10/07 17:22:24;;;;;;;;;;;;;;;;;;5111566;28;19924;-63
2023/10/07 17:24:51;;;;;;;;;;;;;;;;;;5111729;28;19920;-64
2023/10/07 17:27:17;;;;;;;;;;;;;;;;;;5127306;27;20416;-62
2023/10/07 17:29:43;;;;;;;;;;;;;;;;;;5112412;28;19920;-63